sensor_id;sensor_type;location;lat;lon;timestamp;pressure;altitude;pressure_sealevel;temperature;humidity
67457;BME280;54319;52.038;4.640;2023-04-20T00:02:11;102567.50;;;6.05;53.56
67457;BME280;54319;52.038;4.640;2023-04-20T00:04:39;102558.91;;;6.00;53.58
67457;BME280;54319;52.038;4.640;2023-04-20T00:07:07;102565.09;;;6.02;53.88
67457;BME280;54319;52.038;4.640;2023-04-20T00:09:34;102567.22;;;6.08;53.51
67457;BME280;54319;52.038;4.640;2023-04-20T00:12:01;102572.53;;;6.10;53.16
67457;BME280;54319;52.038;4.640;2023-04-20T00:14:28;102559.81;;;6.11;53.29
67457;BME280;54319;52.038;4.640;2023-04-20T00:16:54;102567.38;;;6.07;53.73
67457;BME280;54319;52.038;4.640;2023-04-20T00:19:21;102556.81;;;6.04;53.99
67457;BME280;54319;52.038;4.640;2023-04-20T00:21:48;102561.50;;;6.02;54.07
67457;BME280;54319;52.038;4.640;2023-04-20T00:24:16;102559.03;;;5.99;53.87
67457;BME280;54319;52.038;4.640;2023-04-20T00:26:42;102557.50;;;5.96;54.76
67457;BME280;54319;52.038;4.640;2023-04-20T00:29:09;102557.63;;;5.94;55.32
67457;BME280;54319;52.038;4.640;2023-04-20T00:31:36;102555.47;;;5.88;56.13
67457;BME280;54319;52.038;4.640;2023-04-20T00:34:03;102558.47;;;5.85;55.49
67457;BME280;54319;52.038;4.640;2023-04-20T00:36:29;102545.47;;;5.79;56.58
67457;BME280;54319;52.038;4.640;2023-04-20T00:38:56;102526.88;;;5.64;56.25
67457;BME280;54319;52.038;4.640;2023-04-20T00:41:25;102546.03;;;5.73;56.61
67457;BME280;54319;52.038;4.640;2023-04-20T00:43:53;102530.03;;;5.60;56.69
67457;BME280;54319;52.038;4.640;2023-04-20T00:46:20;102545.84;;;5.64;55.98
67457;BME280;54319;52.038;4.640;2023-04-20T00:48:48;102540.69;;;5.61;56.54
67457;BME280;54319;52.038;4.640;2023-04-20T00:51:15;102535.28;;;5.61;56.57
67457;BME280;54319;52.038;4.640;2023-04-20T00:53:43;102533.72;;;5.59;56.84
67457;BME280;54319;52.038;4.640;2023-04-20T00:56:11;102434.09;;;5.02;57.11
67457;BME280;54319;52.038;4.640;2023-04-20T00:58:40;102516.00;;;5.45;58.89
67457;BME280;54319;52.038;4.640;2023-04-20T01:01:08;102524.69;;;5.48;56.93
67457;BME280;54319;52.038;4.640;2023-04-20T01:03:35;102490.28;;;5.29;57.57
67457;BME280;54319;52.038;4.640;2023-04-20T01:06:02;102514.28;;;5.44;58.53
67457;BME280;54319;52.038;4.640;2023-04-20T01:08:29;102512.00;;;5.39;58.21
67457;BME280;54319;52.038;4.640;2023-04-20T01:10:56;102502.03;;;5.40;57.30
67457;BME280;54319;52.038;4.640;2023-04-20T01:13:22;102503.59;;;5.42;56.83
67457;BME280;54319;52.038;4.640;2023-04-20T01:15:50;102495.78;;;5.49;56.51
67457;BME280;54319;52.038;4.640;2023-04-20T01:18:18;102489.25;;;5.52;56.10
67457;BME280;54319;52.038;4.640;2023-04-20T01:20:45;102475.84;;;5.50;56.07
67457;BME280;54319;52.038;4.640;2023-04-20T01:23:13;102431.03;;;5.26;55.48
67457;BME280;54319;52.038;4.640;2023-04-20T01:25:40;102477.44;;;5.62;55.59
67457;BME280;54319;52.038;4.640;2023-04-20T01:28:07;102458.31;;;5.54;55.39
67457;BME280;54319;52.038;4.640;2023-04-20T01:30:34;102457.06;;;5.58;54.69
67457;BME280;54319;52.038;4.640;2023-04-20T01:33:01;102454.50;;;5.57;54.80
67457;BME280;54319;52.038;4.640;2023-04-20T01:35:28;102456.34;;;5.56;55.79
67457;BME280;54319;52.038;4.640;2023-04-20T01:37:54;102438.25;;;5.57;55.36
67457;BME280;54319;52.038;4.640;2023-04-20T01:40:23;102444.50;;;5.57;55.22
67457;BME280;54319;52.038;4.640;2023-04-20T01:42:50;102436.66;;;5.54;55.55
67457;BME280;54319;52.038;4.640;2023-04-20T01:45:17;102427.84;;;5.62;55.01
67457;BME280;54319;52.038;4.640;2023-04-20T01:47:44;102360.41;;;5.19;55.16
67457;BME280;54319;52.038;4.640;2023-04-20T01:50:10;102416.31;;;5.60;56.12
67457;BME280;54319;52.038;4.640;2023-04-20T01:52:37;102417.31;;;5.59;56.32
67457;BME280;54319;52.038;4.640;2023-04-20T01:55:04;102425.00;;;5.63;57.38
67457;BME280;54319;52.038;4.640;2023-04-20T01:57:32;102430.00;;;5.68;57.47
67457;BME280;54319;52.038;4.640;2023-04-20T01:59:59;102421.19;;;5.76;58.01
67457;BME280;54319;52.038;4.640;2023-04-20T02:02:26;102350.31;;;5.31;58.85
67457;BME280;54319;52.038;4.640;2023-04-20T02:04:52;102411.19;;;5.76;58.83
67457;BME280;54319;52.038;4.640;2023-04-20T02:07:19;102413.78;;;5.78;59.98
67457;BME280;54319;52.038;4.640;2023-04-20T02:09:45;102415.75;;;5.76;60.13
67457;BME280;54319;52.038;4.640;2023-04-20T02:12:12;102407.63;;;5.76;60.46
67457;BME280;54319;52.038;4.640;2023-04-20T02:14:40;102403.50;;;5.72;60.91
67457;BME280;54319;52.038;4.640;2023-04-20T02:17:07;102406.63;;;5.77;61.74
67457;BME280;54319;52.038;4.640;2023-04-20T02:19:33;102407.47;;;5.77;61.76
67457;BME280;54319;52.038;4.640;2023-04-20T02:22:00;102402.22;;;5.76;62.32
67457;BME280;54319;52.038;4.640;2023-04-20T02:24:27;102397.81;;;5.75;62.46
67457;BME280;54319;52.038;4.640;2023-04-20T02:26:53;102393.69;;;5.71;62.51
67457;BME280;54319;52.038;4.640;2023-04-20T02:29:20;102393.38;;;5.64;63.34
67457;BME280;54319;52.038;4.640;2023-04-20T02:31:48;102383.69;;;5.52;64.66
67457;BME280;54319;52.038;4.640;2023-04-20T02:34:14;102379.25;;;5.41;65.64
67457;BME280;54319;52.038;4.640;2023-04-20T02:36:41;102384.75;;;5.29;66.28
67457;BME280;54319;52.038;4.640;2023-04-20T02:39:09;102378.47;;;5.19;66.91
67457;BME280;54319;52.038;4.640;2023-04-20T02:41:35;102380.59;;;5.05;68.38
67457;BME280;54319;52.038;4.640;2023-04-20T02:44:02;102383.41;;;4.94;68.62
67457;BME280;54319;52.038;4.640;2023-04-20T02:46:28;102381.94;;;4.90;68.99
67457;BME280;54319;52.038;4.640;2023-04-20T02:48:56;102378.06;;;4.83;69.58
67457;BME280;54319;52.038;4.640;2023-04-20T02:51:23;102371.38;;;4.77;71.12
67457;BME280;54319;52.038;4.640;2023-04-20T02:53:50;102368.97;;;4.74;71.75
67457;BME280;54319;52.038;4.640;2023-04-20T02:56:16;102363.06;;;4.69;72.25
67457;BME280;54319;52.038;4.640;2023-04-20T02:58:43;102365.09;;;4.76;73.09
67457;BME280;54319;52.038;4.640;2023-04-20T03:01:12;102367.13;;;4.84;73.41
67457;BME280;54319;52.038;4.640;2023-04-20T03:03:40;102365.47;;;4.93;74.36
67457;BME280;54319;52.038;4.640;2023-04-20T03:06:08;102356.00;;;5.18;73.44
67457;BME280;54319;52.038;4.640;2023-04-20T03:08:34;102350.31;;;5.41;73.24
67457;BME280;54319;52.038;4.640;2023-04-20T03:11:01;102343.50;;;5.57;72.28
67457;BME280;54319;52.038;4.640;2023-04-20T03:13:27;102342.94;;;5.73;71.90
67457;BME280;54319;52.038;4.640;2023-04-20T03:15:54;102310.28;;;5.64;71.40
67457;BME280;54319;52.038;4.640;2023-04-20T03:18:21;102334.94;;;5.91;71.48
67457;BME280;54319;52.038;4.640;2023-04-20T03:20:47;102337.91;;;5.98;70.94
67457;BME280;54319;52.038;4.640;2023-04-20T03:23:15;102332.47;;;5.98;71.37
67457;BME280;54319;52.038;4.640;2023-04-20T03:25:42;102333.81;;;6.03;71.05
67457;BME280;54319;52.038;4.640;2023-04-20T03:28:10;102330.09;;;6.04;71.23
67457;BME280;54319;52.038;4.640;2023-04-20T03:30:37;102332.50;;;6.07;70.90
67457;BME280;54319;52.038;4.640;2023-04-20T03:33:03;102325.09;;;6.10;71.22
67457;BME280;54319;52.038;4.640;2023-04-20T03:35:30;102329.91;;;6.16;71.18
67457;BME280;54319;52.038;4.640;2023-04-20T03:37:58;102320.50;;;6.20;71.14
67457;BME280;54319;52.038;4.640;2023-04-20T03:40:27;102244.88;;;5.79;71.16
67457;BME280;54319;52.038;4.640;2023-04-20T03:42:53;102321.34;;;6.30;71.21
67457;BME280;54319;52.038;4.640;2023-04-20T03:45:20;102311.63;;;6.28;71.49
67457;BME280;54319;52.038;4.640;2023-04-20T03:47:47;102310.63;;;6.29;71.71
67457;BME280;54319;52.038;4.640;2023-04-20T03:50:13;102308.09;;;6.27;71.97
67457;BME280;54319;52.038;4.640;2023-04-20T03:52:40;102297.69;;;6.22;72.10
67457;BME280;54319;52.038;4.640;2023-04-20T03:55:07;102302.50;;;6.29;72.51
67457;BME280;54319;52.038;4.640;2023-04-20T03:57:36;102300.50;;;6.31;72.82
67457;BME280;54319;52.038;4.640;2023-04-20T04:00:03;102298.50;;;6.33;72.58
67457;BME280;54319;52.038;4.640;2023-04-20T04:02:30;102290.34;;;6.33;73.46
67457;BME280;54319;52.038;4.640;2023-04-20T04:04:57;102293.94;;;6.33;73.61
67457;BME280;54319;52.038;4.640;2023-04-20T04:07:23;102282.41;;;6.31;73.32
67457;BME280;54319;52.038;4.640;2023-04-20T04:09:50;102292.22;;;6.32;74.01
67457;BME280;54319;52.038;4.640;2023-04-20T04:12:17;102292.22;;;6.32;74.12
67457;BME280;54319;52.038;4.640;2023-04-20T04:14:45;102296.47;;;6.35;74.44
67457;BME280;54319;52.038;4.640;2023-04-20T04:17:12;102287.34;;;6.36;73.73
67457;BME280;54319;52.038;4.640;2023-04-20T04:19:40;102291.94;;;6.35;74.41
67457;BME280;54319;52.038;4.640;2023-04-20T04:22:08;102293.19;;;6.41;74.25
67457;BME280;54319;52.038;4.640;2023-04-20T04:24:34;102285.91;;;6.42;74.27
67457;BME280;54319;52.038;4.640;2023-04-20T04:27:03;102275.91;;;6.42;74.71
67457;BME280;54319;52.038;4.640;2023-04-20T04:29:31;102279.63;;;6.41;74.86
67457;BME280;54319;52.038;4.640;2023-04-20T04:32:01;102256.28;;;6.30;74.77
67457;BME280;54319;52.038;4.640;2023-04-20T04:34:28;102272.75;;;6.47;74.79
67457;BME280;54319;52.038;4.640;2023-04-20T04:36:55;102270.75;;;6.49;74.96
67457;BME280;54319;52.038;4.640;2023-04-20T04:39:22;102262.31;;;6.52;74.68
67457;BME280;54319;52.038;4.640;2023-04-20T04:41:48;102258.47;;;6.55;75.07
67457;BME280;54319;52.038;4.640;2023-04-20T04:44:15;102252.16;;;6.54;75.47
67457;BME280;54319;52.038;4.640;2023-04-20T04:46:42;102247.63;;;6.55;75.31
67457;BME280;54319;52.038;4.640;2023-04-20T04:49:12;102250.84;;;6.58;74.99
67457;BME280;54319;52.038;4.640;2023-04-20T04:51:40;102237.31;;;6.58;75.21
67457;BME280;54319;52.038;4.640;2023-04-20T04:54:06;102233.88;;;6.56;75.30
67457;BME280;54319;52.038;4.640;2023-04-20T04:56:33;102224.44;;;6.60;75.34
67457;BME280;54319;52.038;4.640;2023-04-20T04:58:59;102232.00;;;6.66;75.51
67457;BME280;54319;52.038;4.640;2023-04-20T05:01:26;102232.00;;;6.66;75.40
67457;BME280;54319;52.038;4.640;2023-04-20T05:03:53;102233.53;;;6.69;75.46
67457;BME280;54319;52.038;4.640;2023-04-20T05:06:21;102227.66;;;6.74;75.49
67457;BME280;54319;52.038;4.640;2023-04-20T05:08:48;102218.34;;;6.76;75.29
67457;BME280;54319;52.038;4.640;2023-04-20T05:11:15;102221.44;;;6.81;74.80
67457;BME280;54319;52.038;4.640;2023-04-20T05:13:42;102209.47;;;6.84;75.04
67457;BME280;54319;52.038;4.640;2023-04-20T05:16:08;102210.84;;;6.88;75.10
67457;BME280;54319;52.038;4.640;2023-04-20T05:18:35;102209.69;;;6.91;75.46
67457;BME280;54319;52.038;4.640;2023-04-20T05:21:02;102200.94;;;6.97;75.07
67457;BME280;54319;52.038;4.640;2023-04-20T05:23:30;102201.00;;;7.05;74.80
67457;BME280;54319;52.038;4.640;2023-04-20T05:25:57;102210.72;;;7.08;74.55
67457;BME280;54319;52.038;4.640;2023-04-20T05:28:23;102211.78;;;7.15;74.39
67457;BME280;54319;52.038;4.640;2023-04-20T05:30:51;102205.28;;;7.26;74.16
67457;BME280;54319;52.038;4.640;2023-04-20T05:33:19;102200.22;;;7.31;73.98
67457;BME280;54319;52.038;4.640;2023-04-20T05:35:45;102195.16;;;7.36;73.71
67457;BME280;54319;52.038;4.640;2023-04-20T05:38:13;102188.09;;;7.44;73.20
67457;BME280;54319;52.038;4.640;2023-04-20T05:40:41;102194.81;;;7.58;72.81
67457;BME280;54319;52.038;4.640;2023-04-20T05:43:07;102190.06;;;7.60;72.65
67457;BME280;54319;52.038;4.640;2023-04-20T05:45:34;102198.59;;;7.65;72.80
67457;BME280;54319;52.038;4.640;2023-04-20T05:48:01;102200.16;;;7.67;72.39
67457;BME280;54319;52.038;4.640;2023-04-20T05:50:27;102203.25;;;7.73;70.87
67457;BME280;54319;52.038;4.640;2023-04-20T05:52:54;102199.19;;;7.77;68.72
67457;BME280;54319;52.038;4.640;2023-04-20T05:55:22;102193.97;;;7.84;68.68
67457;BME280;54319;52.038;4.640;2023-04-20T05:57:51;102177.78;;;7.74;68.45
67457;BME280;54319;52.038;4.640;2023-04-20T06:00:18;102203.66;;;7.86;68.14
67457;BME280;54319;52.038;4.640;2023-04-20T06:02:45;102208.75;;;7.89;64.47
67457;BME280;54319;52.038;4.640;2023-04-20T06:05:12;102203.00;;;7.92;63.21
67457;BME280;54319;52.038;4.640;2023-04-20T06:07:39;102207.28;;;7.95;62.65
67457;BME280;54319;52.038;4.640;2023-04-20T06:10:06;102198.44;;;7.93;62.72
67457;BME280;54319;52.038;4.640;2023-04-20T06:12:33;102188.00;;;7.80;62.90
67457;BME280;54319;52.038;4.640;2023-04-20T06:15:01;102206.13;;;7.97;62.60
67457;BME280;54319;52.038;4.640;2023-04-20T06:17:29;102213.94;;;8.01;62.63
67457;BME280;54319;52.038;4.640;2023-04-20T06:19:55;102214.97;;;8.00;62.44
67457;BME280;54319;52.038;4.640;2023-04-20T06:22:22;102204.94;;;8.00;62.34
67457;BME280;54319;52.038;4.640;2023-04-20T06:24:48;102196.94;;;7.99;62.09
67457;BME280;54319;52.038;4.640;2023-04-20T06:27:15;102202.06;;;8.02;62.12
67457;BME280;54319;52.038;4.640;2023-04-20T06:29:42;102195.44;;;8.04;62.39
67457;BME280;54319;52.038;4.640;2023-04-20T06:32:10;102195.28;;;8.06;62.89
67457;BME280;54319;52.038;4.640;2023-04-20T06:34:36;102203.25;;;8.07;62.12
67457;BME280;54319;52.038;4.640;2023-04-20T06:37:04;102189.84;;;8.06;62.74
67457;BME280;54319;52.038;4.640;2023-04-20T06:39:31;102189.16;;;8.04;63.63
67457;BME280;54319;52.038;4.640;2023-04-20T06:41:58;102188.50;;;8.10;62.67
67457;BME280;54319;52.038;4.640;2023-04-20T06:44:24;102186.81;;;8.09;63.75
67457;BME280;54319;52.038;4.640;2023-04-20T06:46:52;102167.06;;;7.99;63.91
67457;BME280;54319;52.038;4.640;2023-04-20T06:49:20;102173.22;;;8.09;63.37
67457;BME280;54319;52.038;4.640;2023-04-20T06:51:47;102178.66;;;8.09;63.42
67457;BME280;54319;52.038;4.640;2023-04-20T06:54:13;102181.03;;;8.12;63.64
67457;BME280;54319;52.038;4.640;2023-04-20T06:56:40;102171.00;;;8.13;64.58
67457;BME280;54319;52.038;4.640;2023-04-20T06:59:06;102171.00;;;8.13;65.39
67457;BME280;54319;52.038;4.640;2023-04-20T07:01:33;102161.13;;;8.03;64.74
67457;BME280;54319;52.038;4.640;2023-04-20T07:03:59;102161.28;;;8.02;65.52
67457;BME280;54319;52.038;4.640;2023-04-20T07:06:27;102155.34;;;8.06;65.37
67457;BME280;54319;52.038;4.640;2023-04-20T07:08:55;102160.59;;;8.00;67.30
67457;BME280;54319;52.038;4.640;2023-04-20T07:11:22;102154.97;;;7.93;68.42
67457;BME280;54319;52.038;4.640;2023-04-20T07:13:49;102158.81;;;7.82;66.78
67457;BME280;54319;52.038;4.640;2023-04-20T07:16:16;102172.56;;;7.80;66.94
67457;BME280;54319;52.038;4.640;2023-04-20T07:18:43;102153.22;;;7.57;67.05
67457;BME280;54319;52.038;4.640;2023-04-20T07:21:09;102166.88;;;7.65;67.12
67457;BME280;54319;52.038;4.640;2023-04-20T07:23:37;102153.72;;;7.52;67.87
67457;BME280;54319;52.038;4.640;2023-04-20T07:26:04;102168.22;;;7.61;68.84
67457;BME280;54319;52.038;4.640;2023-04-20T07:28:31;102164.81;;;7.59;68.85
67457;BME280;54319;52.038;4.640;2023-04-20T07:30:58;102177.16;;;7.53;69.40
67457;BME280;54319;52.038;4.640;2023-04-20T07:33:24;102175.06;;;7.47;70.12
67457;BME280;54319;52.038;4.640;2023-04-20T07:35:52;102188.09;;;7.44;71.18
67457;BME280;54319;52.038;4.640;2023-04-20T07:38:18;102174.78;;;7.32;72.05
67457;BME280;54319;52.038;4.640;2023-04-20T07:40:46;102180.53;;;7.29;73.10
67457;BME280;54319;52.038;4.640;2023-04-20T07:43:13;102185.19;;;7.19;74.85
67457;BME280;54319;52.038;4.640;2023-04-20T07:45:39;102184.72;;;7.05;75.71
67457;BME280;54319;52.038;4.640;2023-04-20T07:48:06;102179.47;;;6.86;77.10
67457;BME280;54319;52.038;4.640;2023-04-20T07:50:34;102170.72;;;6.74;78.99
67457;BME280;54319;52.038;4.640;2023-04-20T07:53:00;102167.31;;;6.72;80.84
67457;BME280;54319;52.038;4.640;2023-04-20T07:55:27;102172.78;;;6.62;81.30
67457;BME280;54319;52.038;4.640;2023-04-20T07:57:56;102175.94;;;6.57;82.54
67457;BME280;54319;52.038;4.640;2023-04-20T08:00:23;102113.31;;;6.14;82.11
67457;BME280;54319;52.038;4.640;2023-04-20T08:02:50;102156.94;;;6.39;83.05
67457;BME280;54319;52.038;4.640;2023-04-20T08:05:17;102160.56;;;6.30;82.51
67457;BME280;54319;52.038;4.640;2023-04-20T08:07:44;102151.25;;;6.14;83.16
67457;BME280;54319;52.038;4.640;2023-04-20T08:10:11;102183.50;;;6.35;84.10
67457;BME280;54319;52.038;4.640;2023-04-20T08:12:38;102180.63;;;6.37;84.40
67457;BME280;54319;52.038;4.640;2023-04-20T08:15:08;102175.38;;;6.35;84.23
67457;BME280;54319;52.038;4.640;2023-04-20T08:17:34;102170.34;;;6.41;84.32
67457;BME280;54319;52.038;4.640;2023-04-20T08:20:01;102187.38;;;6.33;83.83
67457;BME280;54319;52.038;4.640;2023-04-20T08:22:30;102178.31;;;6.42;85.24
67457;BME280;54319;52.038;4.640;2023-04-20T08:24:57;102179.19;;;6.43;84.49
67457;BME280;54319;52.038;4.640;2023-04-20T08:27:24;102183.72;;;6.42;84.85
67457;BME280;54319;52.038;4.640;2023-04-20T08:29:53;102162.34;;;6.39;85.84
67457;BME280;54319;52.038;4.640;2023-04-20T08:32:21;102161.97;;;6.34;85.32
67457;BME280;54319;52.038;4.640;2023-04-20T08:34:50;102148.81;;;6.39;86.65
67457;BME280;54319;52.038;4.640;2023-04-20T08:37:17;102155.53;;;6.35;86.60
67457;BME280;54319;52.038;4.640;2023-04-20T08:39:44;102162.13;;;6.32;87.58
67457;BME280;54319;52.038;4.640;2023-04-20T08:42:10;102156.44;;;6.26;87.61
67457;BME280;54319;52.038;4.640;2023-04-20T08:44:37;102132.50;;;6.21;88.38
67457;BME280;54319;52.038;4.640;2023-04-20T08:47:04;102155.53;;;6.35;89.07
67457;BME280;54319;52.038;4.640;2023-04-20T08:49:32;102149.81;;;6.38;88.37
67457;BME280;54319;52.038;4.640;2023-04-20T08:51:59;102101.47;;;6.15;89.32
67457;BME280;54319;52.038;4.640;2023-04-20T08:54:25;102125.91;;;6.33;88.08
67457;BME280;54319;52.038;4.640;2023-04-20T08:56:53;102144.91;;;6.51;89.15
67457;BME280;54319;52.038;4.640;2023-04-20T08:59:21;102137.22;;;6.47;87.77
67457;BME280;54319;52.038;4.640;2023-04-20T09:01:48;102133.13;;;6.61;89.00
67457;BME280;54319;52.038;4.640;2023-04-20T09:04:16;102132.44;;;6.77;89.10
67457;BME280;54319;52.038;4.640;2023-04-20T09:06:45;102122.34;;;6.87;88.71
67457;BME280;54319;52.038;4.640;2023-04-20T09:09:12;102106.63;;;6.73;86.85
67457;BME280;54319;52.038;4.640;2023-04-20T09:11:38;102127.06;;;7.03;86.88
67457;BME280;54319;52.038;4.640;2023-04-20T09:14:07;102138.91;;;7.02;85.67
67457;BME280;54319;52.038;4.640;2023-04-20T09:16:37;102143.19;;;7.05;86.17
67457;BME280;54319;52.038;4.640;2023-04-20T09:19:04;102130.47;;;7.05;86.04
67457;BME280;54319;52.038;4.640;2023-04-20T09:21:31;102124.41;;;7.12;86.45
67457;BME280;54319;52.038;4.640;2023-04-20T09:24:00;102125.78;;;7.16;87.51
67457;BME280;54319;52.038;4.640;2023-04-20T09:26:30;102121.78;;;7.20;87.43
67457;BME280;54319;52.038;4.640;2023-04-20T09:28:57;102128.19;;;7.19;85.79
67457;BME280;54319;52.038;4.640;2023-04-20T09:31:24;102131.44;;;7.22;85.41
67457;BME280;54319;52.038;4.640;2023-04-20T09:33:57;102114.19;;;7.32;86.85
67457;BME280;54319;52.038;4.640;2023-04-20T09:36:34;102123.66;;;7.28;85.63
67457;BME280;54319;52.038;4.640;2023-04-20T09:39:06;102083.25;;;6.98;85.45
67457;BME280;54319;52.038;4.640;2023-04-20T09:41:33;102115.53;;;7.28;85.43
67457;BME280;54319;52.038;4.640;2023-04-20T09:44:01;102102.78;;;7.20;84.29
67457;BME280;54319;52.038;4.640;2023-04-20T09:46:28;102096.56;;;7.36;85.26
67457;BME280;54319;52.038;4.640;2023-04-20T09:48:57;102099.84;;;7.39;85.51
67457;BME280;54319;52.038;4.640;2023-04-20T09:51:25;102114.09;;;7.42;85.21
67457;BME280;54319;52.038;4.640;2023-04-20T09:53:55;102091.09;;;7.54;83.95
67457;BME280;54319;52.038;4.640;2023-04-20T09:56:24;102076.56;;;7.63;82.46
67457;BME280;54319;52.038;4.640;2023-04-20T09:58:51;102082.53;;;7.75;82.34
67457;BME280;54319;52.038;4.640;2023-04-20T10:01:18;102079.00;;;7.83;82.76
67457;BME280;54319;52.038;4.640;2023-04-20T10:03:47;102072.97;;;8.06;83.92
67457;BME280;54319;52.038;4.640;2023-04-20T10:06:18;102084.88;;;8.13;81.94
67457;BME280;54319;52.038;4.640;2023-04-20T10:08:45;102087.94;;;8.10;82.96
67457;BME280;54319;52.038;4.640;2023-04-20T10:11:24;102079.81;;;8.26;82.35
67457;BME280;54319;52.038;4.640;2023-04-20T10:13:51;102075.75;;;8.31;79.28
67457;BME280;54319;52.038;4.640;2023-04-20T10:16:18;102091.91;;;8.49;80.02
67457;BME280;54319;52.038;4.640;2023-04-20T10:18:55;102069.03;;;8.60;79.65
67457;BME280;54319;52.038;4.640;2023-04-20T10:21:22;102071.75;;;8.68;79.31
67457;BME280;54319;52.038;4.640;2023-04-20T10:23:50;102078.22;;;8.75;77.74
67457;BME280;54319;52.038;4.640;2023-04-20T10:26:16;102085.19;;;8.69;76.96
67457;BME280;54319;52.038;4.640;2023-04-20T10:28:45;102086.06;;;8.78;77.04
67457;BME280;54319;52.038;4.640;2023-04-20T10:31:13;102072.09;;;8.98;78.51
67457;BME280;54319;52.038;4.640;2023-04-20T10:33:51;102087.06;;;9.10;77.62
67457;BME280;54319;52.038;4.640;2023-04-20T10:36:26;102069.00;;;9.26;75.77
67457;BME280;54319;52.038;4.640;2023-04-20T10:38:55;102055.03;;;9.21;74.25
67457;BME280;54319;52.038;4.640;2023-04-20T10:41:22;102046.22;;;9.19;74.62
67457;BME280;54319;52.038;4.640;2023-04-20T10:43:50;102062.34;;;9.29;74.14
67457;BME280;54319;52.038;4.640;2023-04-20T10:46:17;102064.88;;;9.30;73.87
67457;BME280;54319;52.038;4.640;2023-04-20T10:48:52;102074.06;;;9.37;74.43
67457;BME280;54319;52.038;4.640;2023-04-20T10:51:19;102069.97;;;9.41;72.00
67457;BME280;54319;52.038;4.640;2023-04-20T10:53:57;102055.50;;;9.81;74.73
67457;BME280;54319;52.038;4.640;2023-04-20T10:56:23;102067.47;;;10.11;74.10
67457;BME280;54319;52.038;4.640;2023-04-20T10:58:52;102061.25;;;10.26;70.65
67457;BME280;54319;52.038;4.640;2023-04-20T11:01:19;101989.88;;;9.91;69.71
67457;BME280;54319;52.038;4.640;2023-04-20T11:03:48;102059.03;;;10.30;68.21
67457;BME280;54319;52.038;4.640;2023-04-20T11:06:16;102059.31;;;10.03;70.61
67457;BME280;54319;52.038;4.640;2023-04-20T11:08:43;102053.75;;;9.96;69.29
67457;BME280;54319;52.038;4.640;2023-04-20T11:11:19;102045.22;;;9.99;69.51
67457;BME280;54319;52.038;4.640;2023-04-20T11:13:46;102047.50;;;9.88;70.79
67457;BME280;54319;52.038;4.640;2023-04-20T11:16:15;102041.72;;;9.82;69.01
67457;BME280;54319;52.038;4.640;2023-04-20T11:18:49;102040.66;;;9.92;68.52
67457;BME280;54319;52.038;4.640;2023-04-20T11:21:17;102043.88;;;9.95;69.33
67457;BME280;54319;52.038;4.640;2023-04-20T11:23:44;101987.72;;;9.86;68.36
67457;BME280;54319;52.038;4.640;2023-04-20T11:26:11;102024.88;;;10.10;69.04
67457;BME280;54319;52.038;4.640;2023-04-20T11:28:38;102023.72;;;10.05;67.82
67457;BME280;54319;52.038;4.640;2023-04-20T11:31:17;102019.03;;;9.90;68.60
67457;BME280;54319;52.038;4.640;2023-04-20T11:33:45;102026.59;;;10.11;69.74
67457;BME280;54319;52.038;4.640;2023-04-20T11:36:17;102015.38;;;10.30;69.14
67457;BME280;54319;52.038;4.640;2023-04-20T11:38:44;101987.00;;;10.39;68.69
67457;BME280;54319;52.038;4.640;2023-04-20T11:41:11;102020.84;;;10.76;68.21
67457;BME280;54319;52.038;4.640;2023-04-20T11:43:37;102009.00;;;11.29;67.84
67457;BME280;54319;52.038;4.640;2023-04-20T11:46:11;102003.56;;;11.96;65.65
67457;BME280;54319;52.038;4.640;2023-04-20T11:48:40;101990.06;;;11.94;64.03
67457;BME280;54319;52.038;4.640;2023-04-20T11:51:06;101994.75;;;12.15;62.55
67457;BME280;54319;52.038;4.640;2023-04-20T11:53:33;101991.25;;;11.85;60.69
67457;BME280;54319;52.038;4.640;2023-04-20T11:56:00;101995.97;;;11.76;61.47
67457;BME280;54319;52.038;4.640;2023-04-20T11:58:26;101964.91;;;11.99;61.97
67457;BME280;54319;52.038;4.640;2023-04-20T12:00:53;101991.88;;;12.45;60.51
67457;BME280;54319;52.038;4.640;2023-04-20T12:03:19;101988.56;;;12.50;60.80
67457;BME280;54319;52.038;4.640;2023-04-20T12:05:47;101993.59;;;12.47;60.69
67457;BME280;54319;52.038;4.640;2023-04-20T12:08:14;101978.91;;;12.54;60.85
67457;BME280;54319;52.038;4.640;2023-04-20T12:10:41;101994.81;;;12.66;58.08
67457;BME280;54319;52.038;4.640;2023-04-20T12:13:08;101971.69;;;12.25;58.14
67457;BME280;54319;52.038;4.640;2023-04-20T12:15:35;101982.56;;;12.40;59.15
67457;BME280;54319;52.038;4.640;2023-04-20T12:18:01;101981.47;;;12.34;58.87
67457;BME280;54319;52.038;4.640;2023-04-20T12:20:28;101982.84;;;12.23;58.60
67457;BME280;54319;52.038;4.640;2023-04-20T12:22:56;101972.13;;;12.07;58.45
67457;BME280;54319;52.038;4.640;2023-04-20T12:25:23;101962.25;;;11.91;58.95
67457;BME280;54319;52.038;4.640;2023-04-20T12:27:49;101966.91;;;11.90;59.90
67457;BME280;54319;52.038;4.640;2023-04-20T12:30:16;101964.94;;;11.84;59.57
67457;BME280;54319;52.038;4.640;2023-04-20T12:32:44;101975.94;;;11.91;60.42
67457;BME280;54319;52.038;4.640;2023-04-20T12:35:11;101961.44;;;11.90;59.23
67457;BME280;54319;52.038;4.640;2023-04-20T12:37:37;101953.00;;;11.70;58.05
67457;BME280;54319;52.038;4.640;2023-04-20T12:40:07;101950.81;;;11.80;58.36
67457;BME280;54319;52.038;4.640;2023-04-20T12:42:34;101963.97;;;11.92;57.92
67457;BME280;54319;52.038;4.640;2023-04-20T12:45:01;101959.69;;;11.67;60.69
67457;BME280;54319;52.038;4.640;2023-04-20T12:47:27;101945.22;;;11.52;62.21
67457;BME280;54319;52.038;4.640;2023-04-20T12:49:54;101963.56;;;11.73;62.86
67457;BME280;54319;52.038;4.640;2023-04-20T12:52:20;101962.03;;;11.70;61.28
67457;BME280;54319;52.038;4.640;2023-04-20T12:54:47;101959.16;;;11.57;59.99
67457;BME280;54319;52.038;4.640;2023-04-20T12:57:15;101956.66;;;11.40;60.63
67457;BME280;54319;52.038;4.640;2023-04-20T12:59:42;101965.78;;;11.18;61.68
67457;BME280;54319;52.038;4.640;2023-04-20T13:02:09;101961.25;;;10.95;61.37